sensor_id;sensor_type;location;lat;lon;timestamp;P1;durP1;ratioP1;P2;durP2;ratioP2
78207;SDS011;67481;50.244;18.288;2023-03-01T00:02:10;58.78;;;22.02;;
78207;SDS011;67481;50.244;18.288;2023-03-01T00:04:56;62.85;;;21.38;;
78207;SDS011;67481;50.244;18.288;2023-03-01T00:07:42;60.03;;;21.60;;
78207;SDS011;67481;50.244;18.288;2023-03-01T00:10:27;59.38;;;22.83;;
78207;SDS011;67481;50.244;18.288;2023-03-01T00:13:13;57.08;;;20.08;;
78207;SDS011;67481;50.244;18.288;2023-03-01T00:16:01;52.50;;;21.75;;
78207;SDS011;67481;50.244;18.288;2023-03-01T00:21:33;49.72;;;17.45;;
78207;SDS011;67481;50.244;18.288;2023-03-01T00:24:20;53.10;;;21.52;;
78207;SDS011;67481;50.244;18.288;2023-03-01T00:27:06;58.60;;;20.25;;
78207;SDS011;67481;50.244;18.288;2023-03-01T00:29:51;60.33;;;21.25;;
78207;SDS011;67481;50.244;18.288;2023-03-01T00:32:37;58.60;;;19.92;;
78207;SDS011;67481;50.244;18.288;2023-03-01T00:35:23;71.15;;;23.67;;
78207;SDS011;67481;50.244;18.288;2023-03-01T00:38:09;71.97;;;24.98;;
78207;SDS011;67481;50.244;18.288;2023-03-01T00:40:54;80.43;;;28.00;;
78207;SDS011;67481;50.244;18.288;2023-03-01T00:43:40;78.05;;;26.92;;
78207;SDS011;67481;50.244;18.288;2023-03-01T00:46:26;71.38;;;25.42;;
78207;SDS011;67481;50.244;18.288;2023-03-01T00:49:12;97.88;;;32.50;;
78207;SDS011;67481;50.244;18.288;2023-03-01T00:51:58;71.10;;;28.60;;
78207;SDS011;67481;50.244;18.288;2023-03-01T00:54:58;86.00;;;29.67;;
78207;SDS011;67481;50.244;18.288;2023-03-01T00:57:45;67.90;;;29.48;;
78207;SDS011;67481;50.244;18.288;2023-03-01T01:00:31;56.70;;;21.17;;
78207;SDS011;67481;50.244;18.288;2023-03-01T01:03:18;56.25;;;22.67;;
78207;SDS011;67481;50.244;18.288;2023-03-01T01:06:04;61.40;;;23.67;;
78207;SDS011;67481;50.244;18.288;2023-03-01T01:08:55;64.88;;;24.90;;
78207;SDS011;67481;50.244;18.288;2023-03-01T01:11:41;59.35;;;24.95;;
78207;SDS011;67481;50.244;18.288;2023-03-01T01:14:26;60.30;;;23.00;;
78207;SDS011;67481;50.244;18.288;2023-03-01T01:17:12;77.50;;;25.35;;
78207;SDS011;67481;50.244;18.288;2023-03-01T01:19:58;61.65;;;23.60;;
78207;SDS011;67481;50.244;18.288;2023-03-01T01:22:44;58.22;;;24.08;;
78207;SDS011;67481;50.244;18.288;2023-03-01T01:25:29;63.47;;;25.85;;
78207;SDS011;67481;50.244;18.288;2023-03-01T01:28:15;57.28;;;22.70;;
78207;SDS011;67481;50.244;18.288;2023-03-01T01:31:01;66.85;;;26.63;;
78207;SDS011;67481;50.244;18.288;2023-03-01T01:34:01;50.58;;;20.60;;
78207;SDS011;67481;50.244;18.288;2023-03-01T01:36:49;60.05;;;24.30;;
78207;SDS011;67481;50.244;18.288;2023-03-01T01:39:36;57.67;;;24.25;;
78207;SDS011;67481;50.244;18.288;2023-03-01T01:42:36;60.97;;;24.90;;
78207;SDS011;67481;50.244;18.288;2023-03-01T01:48:10;59.05;;;25.42;;
78207;SDS011;67481;50.244;18.288;2023-03-01T01:50:59;76.28;;;26.17;;
78207;SDS011;67481;50.244;18.288;2023-03-01T01:53:47;49.57;;;19.70;;
78207;SDS011;67481;50.244;18.288;2023-03-01T01:56:36;53.20;;;21.10;;
78207;SDS011;67481;50.244;18.288;2023-03-01T01:59:22;53.97;;;21.02;;
78207;SDS011;67481;50.244;18.288;2023-03-01T02:02:09;52.92;;;18.95;;
78207;SDS011;67481;50.244;18.288;2023-03-01T02:05:03;64.60;;;20.85;;
78207;SDS011;67481;50.244;18.288;2023-03-01T02:07:55;56.45;;;21.40;;
78207;SDS011;67481;50.244;18.288;2023-03-01T02:10:42;72.25;;;26.20;;
78207;SDS011;67481;50.244;18.288;2023-03-01T02:13:28;58.72;;;23.77;;
78207;SDS011;67481;50.244;18.288;2023-03-01T02:16:14;60.97;;;19.75;;
78207;SDS011;67481;50.244;18.288;2023-03-01T02:19:01;65.80;;;23.58;;
78207;SDS011;67481;50.244;18.288;2023-03-01T02:21:56;56.65;;;21.92;;
78207;SDS011;67481;50.244;18.288;2023-03-01T02:24:51;44.50;;;18.92;;
78207;SDS011;67481;50.244;18.288;2023-03-01T02:27:40;62.75;;;25.50;;
78207;SDS011;67481;50.244;18.288;2023-03-01T02:30:37;62.72;;;25.00;;
78207;SDS011;67481;50.244;18.288;2023-03-01T02:33:42;78.30;;;28.60;;
78207;SDS011;67481;50.244;18.288;2023-03-01T02:36:30;60.85;;;24.15;;
78207;SDS011;67481;50.244;18.288;2023-03-01T02:39:27;58.17;;;27.15;;
78207;SDS011;67481;50.244;18.288;2023-03-01T02:42:18;68.60;;;26.73;;
78207;SDS011;67481;50.244;18.288;2023-03-01T02:45:11;66.00;;;25.30;;
78207;SDS011;67481;50.244;18.288;2023-03-01T02:47:57;78.93;;;24.17;;
78207;SDS011;67481;50.244;18.288;2023-03-01T02:56:52;53.00;;;19.63;;
78207;SDS011;67481;50.244;18.288;2023-03-01T02:59:40;54.28;;;22.60;;
78207;SDS011;67481;50.244;18.288;2023-03-01T03:02:29;48.50;;;19.85;;
78207;SDS011;67481;50.244;18.288;2023-03-01T03:05:31;61.78;;;21.48;;
78207;SDS011;67481;50.244;18.288;2023-03-01T03:08:16;61.03;;;22.75;;
78207;SDS011;67481;50.244;18.288;2023-03-01T03:11:10;49.92;;;21.15;;
78207;SDS011;67481;50.244;18.288;2023-03-01T03:13:56;59.35;;;23.95;;
78207;SDS011;67481;50.244;18.288;2023-03-01T03:16:43;58.88;;;20.75;;
78207;SDS011;67481;50.244;18.288;2023-03-01T03:19:30;51.85;;;18.40;;
78207;SDS011;67481;50.244;18.288;2023-03-01T03:22:16;65.30;;;26.20;;
78207;SDS011;67481;50.244;18.288;2023-03-01T03:25:02;66.75;;;24.80;;
78207;SDS011;67481;50.244;18.288;2023-03-01T03:27:48;66.78;;;23.73;;
78207;SDS011;67481;50.244;18.288;2023-03-01T03:30:35;58.13;;;20.88;;
78207;SDS011;67481;50.244;18.288;2023-03-01T03:33:24;59.13;;;21.55;;
78207;SDS011;67481;50.244;18.288;2023-03-01T03:36:14;66.88;;;24.15;;
78207;SDS011;67481;50.244;18.288;2023-03-01T03:39:02;52.00;;;20.25;;
78207;SDS011;67481;50.244;18.288;2023-03-01T03:41:48;46.78;;;19.88;;
78207;SDS011;67481;50.244;18.288;2023-03-01T03:44:34;60.22;;;21.83;;
78207;SDS011;67481;50.244;18.288;2023-03-01T03:47:20;55.92;;;20.77;;
78207;SDS011;67481;50.244;18.288;2023-03-01T03:50:05;52.10;;;21.50;;
78207;SDS011;67481;50.244;18.288;2023-03-01T03:52:51;65.18;;;21.85;;
78207;SDS011;67481;50.244;18.288;2023-03-01T03:55:36;48.85;;;19.52;;
78207;SDS011;67481;50.244;18.288;2023-03-01T03:58:24;44.95;;;19.63;;
78207;SDS011;67481;50.244;18.288;2023-03-01T04:01:10;50.75;;;18.95;;
78207;SDS011;67481;50.244;18.288;2023-03-01T04:03:56;45.58;;;18.55;;
78207;SDS011;67481;50.244;18.288;2023-03-01T04:06:41;47.63;;;21.05;;
78207;SDS011;67481;50.244;18.288;2023-03-01T04:09:26;48.60;;;19.77;;
78207;SDS011;67481;50.244;18.288;2023-03-01T04:12:12;52.38;;;18.73;;
78207;SDS011;67481;50.244;18.288;2023-03-01T04:14:58;46.60;;;17.48;;
78207;SDS011;67481;50.244;18.288;2023-03-01T04:17:44;47.47;;;18.10;;
78207;SDS011;67481;50.244;18.288;2023-03-01T04:20:31;43.35;;;17.95;;
78207;SDS011;67481;50.244;18.288;2023-03-01T04:23:20;53.40;;;18.25;;
78207;SDS011;67481;50.244;18.288;2023-03-01T04:26:06;57.88;;;20.08;;
78207;SDS011;67481;50.244;18.288;2023-03-01T04:28:52;54.00;;;19.75;;
78207;SDS011;67481;50.244;18.288;2023-03-01T04:31:37;45.88;;;16.50;;
78207;SDS011;67481;50.244;18.288;2023-03-01T04:34:23;39.70;;;15.85;;
78207;SDS011;67481;50.244;18.288;2023-03-01T04:37:08;47.92;;;17.38;;
78207;SDS011;67481;50.244;18.288;2023-03-01T04:39:54;49.67;;;16.55;;
78207;SDS011;67481;50.244;18.288;2023-03-01T04:42:39;43.50;;;15.95;;
78207;SDS011;67481;50.244;18.288;2023-03-01T04:45:24;53.72;;;21.00;;
78207;SDS011;67481;50.244;18.288;2023-03-01T04:48:10;51.17;;;21.45;;
78207;SDS011;67481;50.244;18.288;2023-03-01T04:50:55;48.53;;;18.30;;
78207;SDS011;67481;50.244;18.288;2023-03-01T04:53:41;45.90;;;17.00;;
78207;SDS011;67481;50.244;18.288;2023-03-01T04:56:27;48.85;;;19.08;;
78207;SDS011;67481;50.244;18.288;2023-03-01T04:59:13;41.60;;;18.02;;
78207;SDS011;67481;50.244;18.288;2023-03-01T05:01:58;48.53;;;20.35;;
78207;SDS011;67481;50.244;18.288;2023-03-01T05:04:45;45.80;;;17.55;;
78207;SDS011;67481;50.244;18.288;2023-03-01T05:07:31;34.83;;;16.30;;
78207;SDS011;67481;50.244;18.288;2023-03-01T05:10:17;47.35;;;17.13;;
78207;SDS011;67481;50.244;18.288;2023-03-01T05:13:03;48.15;;;18.45;;
78207;SDS011;67481;50.244;18.288;2023-03-01T05:15:59;39.58;;;16.75;;
78207;SDS011;67481;50.244;18.288;2023-03-01T05:18:46;47.33;;;17.88;;
78207;SDS011;67481;50.244;18.288;2023-03-01T05:21:31;54.08;;;20.88;;
78207;SDS011;67481;50.244;18.288;2023-03-01T05:24:18;59.25;;;20.95;;
78207;SDS011;67481;50.244;18.288;2023-03-01T05:27:04;49.15;;;18.85;;
78207;SDS011;67481;50.244;18.288;2023-03-01T05:29:50;44.83;;;19.95;;
78207;SDS011;67481;50.244;18.288;2023-03-01T05:32:35;40.15;;;15.85;;
78207;SDS011;67481;50.244;18.288;2023-03-01T05:38:34;45.25;;;17.92;;
78207;SDS011;67481;50.244;18.288;2023-03-01T05:41:19;62.58;;;24.00;;
78207;SDS011;67481;50.244;18.288;2023-03-01T05:44:06;70.22;;;26.08;;
78207;SDS011;67481;50.244;18.288;2023-03-01T05:46:52;55.55;;;23.08;;
78207;SDS011;67481;50.244;18.288;2023-03-01T05:49:38;50.10;;;21.67;;
78207;SDS011;67481;50.244;18.288;2023-03-01T05:52:24;50.67;;;23.40;;
78207;SDS011;67481;50.244;18.288;2023-03-01T05:55:09;75.10;;;28.75;;
78207;SDS011;67481;50.244;18.288;2023-03-01T05:57:57;52.92;;;24.65;;
78207;SDS011;67481;50.244;18.288;2023-03-01T06:00:46;72.97;;;28.35;;
78207;SDS011;67481;50.244;18.288;2023-03-01T06:03:33;73.55;;;28.23;;
78207;SDS011;67481;50.244;18.288;2023-03-01T06:06:18;62.35;;;26.23;;
78207;SDS011;67481;50.244;18.288;2023-03-01T06:09:04;81.22;;;30.60;;
78207;SDS011;67481;50.244;18.288;2023-03-01T06:11:52;106.25;;;37.15;;
78207;SDS011;67481;50.244;18.288;2023-03-01T06:14:38;97.10;;;33.65;;
78207;SDS011;67481;50.244;18.288;2023-03-01T06:17:24;110.35;;;34.55;;
78207;SDS011;67481;50.244;18.288;2023-03-01T06:26:35;123.85;;;38.95;;
78207;SDS011;67481;50.244;18.288;2023-03-01T06:29:20;101.63;;;35.45;;
78207;SDS011;67481;50.244;18.288;2023-03-01T06:32:05;125.57;;;39.80;;
78207;SDS011;67481;50.244;18.288;2023-03-01T06:34:53;143.77;;;44.97;;
78207;SDS011;67481;50.244;18.288;2023-03-01T06:37:39;146.50;;;50.58;;
78207;SDS011;67481;50.244;18.288;2023-03-01T06:40:26;141.68;;;49.03;;
78207;SDS011;67481;50.244;18.288;2023-03-01T06:43:11;163.90;;;54.97;;
78207;SDS011;67481;50.244;18.288;2023-03-01T06:45:57;157.05;;;55.15;;
78207;SDS011;67481;50.244;18.288;2023-03-01T06:48:43;156.55;;;56.58;;
78207;SDS011;67481;50.244;18.288;2023-03-01T06:51:29;142.85;;;51.72;;
78207;SDS011;67481;50.244;18.288;2023-03-01T06:54:14;117.43;;;43.28;;
78207;SDS011;67481;50.244;18.288;2023-03-01T06:57:00;124.38;;;45.03;;
78207;SDS011;67481;50.244;18.288;2023-03-01T06:59:46;118.35;;;41.88;;
78207;SDS011;67481;50.244;18.288;2023-03-01T07:02:32;89.90;;;36.35;;
78207;SDS011;67481;50.244;18.288;2023-03-01T07:05:18;111.72;;;41.58;;
78207;SDS011;67481;50.244;18.288;2023-03-01T07:08:04;106.60;;;42.83;;
78207;SDS011;67481;50.244;18.288;2023-03-01T07:10:54;106.53;;;37.40;;
78207;SDS011;67481;50.244;18.288;2023-03-01T07:13:41;95.90;;;35.63;;
78207;SDS011;67481;50.244;18.288;2023-03-01T07:16:26;92.28;;;34.67;;
78207;SDS011;67481;50.244;18.288;2023-03-01T07:19:12;97.45;;;34.78;;
78207;SDS011;67481;50.244;18.288;2023-03-01T07:21:58;96.97;;;35.70;;
78207;SDS011;67481;50.244;18.288;2023-03-01T07:24:43;106.25;;;38.08;;
78207;SDS011;67481;50.244;18.288;2023-03-01T07:27:29;126.30;;;43.35;;
78207;SDS011;67481;50.244;18.288;2023-03-01T07:30:14;115.90;;;39.15;;
78207;SDS011;67481;50.244;18.288;2023-03-01T07:33:00;119.47;;;42.08;;
78207;SDS011;67481;50.244;18.288;2023-03-01T07:35:46;110.97;;;39.40;;
78207;SDS011;67481;50.244;18.288;2023-03-01T07:38:32;119.38;;;42.22;;
78207;SDS011;67481;50.244;18.288;2023-03-01T07:41:18;123.38;;;43.25;;
78207;SDS011;67481;50.244;18.288;2023-03-01T07:44:03;119.13;;;40.67;;
78207;SDS011;67481;50.244;18.288;2023-03-01T07:46:49;117.85;;;43.05;;
78207;SDS011;67481;50.244;18.288;2023-03-01T07:49:36;114.30;;;42.00;;
78207;SDS011;67481;50.244;18.288;2023-03-01T07:52:21;118.30;;;40.80;;
78207;SDS011;67481;50.244;18.288;2023-03-01T07:55:07;140.57;;;49.97;;
78207;SDS011;67481;50.244;18.288;2023-03-01T07:57:53;128.27;;;46.50;;
78207;SDS011;67481;50.244;18.288;2023-03-01T08:00:38;144.88;;;50.22;;
78207;SDS011;67481;50.244;18.288;2023-03-01T08:03:23;149.02;;;50.03;;
78207;SDS011;67481;50.244;18.288;2023-03-01T08:06:10;107.88;;;40.67;;
78207;SDS011;67481;50.244;18.288;2023-03-01T08:08:56;135.32;;;47.83;;
78207;SDS011;67481;50.244;18.288;2023-03-01T08:11:41;136.15;;;48.33;;
78207;SDS011;67481;50.244;18.288;2023-03-01T08:14:27;132.27;;;50.60;;
78207;SDS011;67481;50.244;18.288;2023-03-01T08:17:13;104.30;;;36.72;;
78207;SDS011;67481;50.244;18.288;2023-03-01T08:19:59;115.40;;;42.08;;
78207;SDS011;67481;50.244;18.288;2023-03-01T08:22:45;92.75;;;36.67;;
78207;SDS011;67481;50.244;18.288;2023-03-01T08:25:30;77.03;;;28.40;;
78207;SDS011;67481;50.244;18.288;2023-03-01T08:28:15;107.88;;;38.15;;
78207;SDS011;67481;50.244;18.288;2023-03-01T08:31:01;94.80;;;35.95;;
78207;SDS011;67481;50.244;18.288;2023-03-01T08:33:47;91.15;;;30.30;;
78207;SDS011;67481;50.244;18.288;2023-03-01T08:36:41;79.07;;;27.95;;
78207;SDS011;67481;50.244;18.288;2023-03-01T08:39:28;88.25;;;36.00;;
78207;SDS011;67481;50.244;18.288;2023-03-01T08:42:14;73.93;;;26.83;;
78207;SDS011;67481;50.244;18.288;2023-03-01T08:44:59;69.82;;;25.35;;
78207;SDS011;67481;50.244;18.288;2023-03-01T08:47:45;78.00;;;28.33;;
78207;SDS011;67481;50.244;18.288;2023-03-01T08:50:30;78.28;;;32.00;;
78207;SDS011;67481;50.244;18.288;2023-03-01T08:53:16;63.42;;;22.63;;
78207;SDS011;67481;50.244;18.288;2023-03-01T08:56:01;85.97;;;32.42;;
78207;SDS011;67481;50.244;18.288;2023-03-01T08:58:49;86.03;;;32.72;;
78207;SDS011;67481;50.244;18.288;2023-03-01T09:01:35;82.15;;;30.52;;
78207;SDS011;67481;50.244;18.288;2023-03-01T09:04:22;87.82;;;32.47;;
78207;SDS011;67481;50.244;18.288;2023-03-01T09:07:08;82.15;;;32.63;;
78207;SDS011;67481;50.244;18.288;2023-03-01T09:09:54;75.40;;;29.65;;
78207;SDS011;67481;50.244;18.288;2023-03-01T09:12:40;68.82;;;27.35;;
78207;SDS011;67481;50.244;18.288;2023-03-01T09:15:25;72.38;;;28.20;;
78207;SDS011;67481;50.244;18.288;2023-03-01T09:18:13;84.82;;;30.65;;
78207;SDS011;67481;50.244;18.288;2023-03-01T09:21:04;73.10;;;28.83;;
78207;SDS011;67481;50.244;18.288;2023-03-01T09:23:53;75.45;;;28.38;;
78207;SDS011;67481;50.244;18.288;2023-03-01T09:26:41;81.30;;;32.35;;
78207;SDS011;67481;50.244;18.288;2023-03-01T09:29:26;59.28;;;24.73;;
78207;SDS011;67481;50.244;18.288;2023-03-01T09:32:11;42.42;;;19.70;;
78207;SDS011;67481;50.244;18.288;2023-03-01T09:34:57;69.15;;;28.67;;
78207;SDS011;67481;50.244;18.288;2023-03-01T09:40:37;60.55;;;24.95;;
78207;SDS011;67481;50.244;18.288;2023-03-01T09:43:37;53.05;;;20.48;;
78207;SDS011;67481;50.244;18.288;2023-03-01T09:46:31;73.50;;;29.77;;
78207;SDS011;67481;50.244;18.288;2023-03-01T09:49:28;64.22;;;25.17;;
78207;SDS011;67481;50.244;18.288;2023-03-01T09:52:23;62.35;;;26.75;;
78207;SDS011;67481;50.244;18.288;2023-03-01T09:55:15;59.25;;;22.42;;
78207;SDS011;67481;50.244;18.288;2023-03-01T09:58:16;62.28;;;24.67;;
78207;SDS011;67481;50.244;18.288;2023-03-01T10:04:28;66.18;;;25.55;;
78207;SDS011;67481;50.244;18.288;2023-03-01T10:10:34;55.80;;;23.67;;
78207;SDS011;67481;50.244;18.288;2023-03-01T10:16:39;50.00;;;20.73;;
78207;SDS011;67481;50.244;18.288;2023-03-01T10:19:33;62.30;;;22.73;;
78207;SDS011;67481;50.244;18.288;2023-03-01T10:22:24;48.85;;;18.70;;
78207;SDS011;67481;50.244;18.288;2023-03-01T10:25:14;58.08;;;23.23;;
78207;SDS011;67481;50.244;18.288;2023-03-01T10:28:13;56.25;;;21.98;;
78207;SDS011;67481;50.244;18.288;2023-03-01T10:31:03;56.60;;;22.83;;
78207;SDS011;67481;50.244;18.288;2023-03-01T10:33:49;52.03;;;20.27;;
78207;SDS011;67481;50.244;18.288;2023-03-01T10:36:40;37.85;;;16.73;;
78207;SDS011;67481;50.244;18.288;2023-03-01T10:39:26;39.00;;;16.55;;
78207;SDS011;67481;50.244;18.288;2023-03-01T10:42:28;60.88;;;26.48;;
78207;SDS011;67481;50.244;18.288;2023-03-01T10:48:20;66.72;;;25.38;;
78207;SDS011;67481;50.244;18.288;2023-03-01T10:51:12;34.70;;;14.20;;
78207;SDS011;67481;50.244;18.288;2023-03-01T10:54:03;61.55;;;23.55;;
78207;SDS011;67481;50.244;18.288;2023-03-01T10:56:50;60.25;;;22.95;;
78207;SDS011;67481;50.244;18.288;2023-03-01T10:59:41;56.65;;;22.23;;
78207;SDS011;67481;50.244;18.288;2023-03-01T11:02:30;54.10;;;22.75;;
78207;SDS011;67481;50.244;18.288;2023-03-01T11:05:19;56.95;;;22.23;;
78207;SDS011;67481;50.244;18.288;2023-03-01T11:08:08;49.58;;;20.55;;
78207;SDS011;67481;50.244;18.288;2023-03-01T11:11:03;56.83;;;22.05;;
78207;SDS011;67481;50.244;18.288;2023-03-01T11:17:12;38.75;;;17.17;;
78207;SDS011;67481;50.244;18.288;2023-03-01T11:20:07;35.10;;;13.82;;
78207;SDS011;67481;50.244;18.288;2023-03-01T11:23:12;26.42;;;12.32;;
78207;SDS011;67481;50.244;18.288;2023-03-01T11:25:59;40.67;;;16.60;;
78207;SDS011;67481;50.244;18.288;2023-03-01T11:28:49;49.15;;;21.73;;
78207;SDS011;67481;50.244;18.288;2023-03-01T11:35:01;46.20;;;16.63;;
78207;SDS011;67481;50.244;18.288;2023-03-01T11:38:03;43.47;;;17.48;;
78207;SDS011;67481;50.244;18.288;2023-03-01T11:44:23;37.53;;;15.70;;
78207;SDS011;67481;50.244;18.288;2023-03-01T11:53:18;28.15;;;10.73;;
78207;SDS011;67481;50.244;18.288;2023-03-01T12:17:44;22.15;;;9.23;;
78207;SDS011;67481;50.244;18.288;2023-03-01T12:29:54;26.65;;;12.35;;
78207;SDS011;67481;50.244;18.288;2023-03-01T12:41:50;26.77;;;10.77;;
78207;SDS011;67481;50.244;18.288;2023-03-01T12:51:26;22.15;;;9.15;;
78207;SDS011;67481;50.244;18.288;2023-03-01T12:54:15;29.60;;;12.43;;
78207;SDS011;67481;50.244;18.288;2023-03-01T13:00:17;25.60;;;10.55;;
78207;SDS011;67481;50.244;18.288;2023-03-01T13:06:21;20.67;;;7.90;;
78207;SDS011;67481;50.244;18.288;2023-03-01T13:12:44;14.52;;;7.13;;
78207;SDS011;67481;50.244;18.288;2023-03-01T13:15:34;28.77;;;11.13;;
78207;SDS011;67481;50.244;18.288;2023-03-01T13:21:13;26.80;;;11.02;;
78207;SDS011;67481;50.244;18.288;2023-03-01T13:27:22;13.38;;;5.35;;
78207;SDS011;67481;50.244;18.288;2023-03-01T13:39:32;22.45;;;8.82;;
78207;SDS011;67481;50.244;18.288;2023-03-01T13:42:36;18.00;;;6.70;;
78207;SDS011;67481;50.244;18.288;2023-03-01T13:45:35;19.45;;;7.60;;
78207;SDS011;67481;50.244;18.288;2023-03-01T13:48:24;27.02;;;8.15;;
78207;SDS011;67481;50.244;18.288;2023-03-01T13:51:14;17.80;;;6.90;;
78207;SDS011;67481;50.244;18.288;2023-03-01T13:54:00;13.15;;;4.90;;
78207;SDS011;67481;50.244;18.288;2023-03-01T13:56:46;21.40;;;6.95;;
78207;SDS011;67481;50.244;18.288;2023-03-01T13:59:31;20.90;;;7.25;;
78207;SDS011;67481;50.244;18.288;2023-03-01T14:02:17;16.75;;;6.90;;
78207;SDS011;67481;50.244;18.288;2023-03-01T14:05:02;12.48;;;4.47;;
78207;SDS011;67481;50.244;18.288;2023-03-01T14:07:51;17.00;;;6.88;;
78207;SDS011;67481;50.244;18.288;2023-03-01T14:16:52;18.10;;;8.07;;
78207;SDS011;67481;50.244;18.288;2023-03-01T14:19:58;18.63;;;7.60;;
78207;SDS011;67481;50.244;18.288;2023-03-01T14:22:46;17.58;;;8.02;;
78207;SDS011;67481;50.244;18.288;2023-03-01T14:25:33;7.95;;;3.25;;
78207;SDS011;67481;50.244;18.288;2023-03-01T14:28:21;12.32;;;4.82;;
78207;SDS011;67481;50.244;18.288;2023-03-01T14:34:23;24.73;;;9.38;;
78207;SDS011;67481;50.244;18.288;2023-03-01T14:37:20;12.80;;;4.70;;
78207;SDS011;67481;50.244;18.288;2023-03-01T14:43:10;16.67;;;7.45;;
78207;SDS011;67481;50.244;18.288;2023-03-01T14:45:59;15.95;;;6.13;;
78207;SDS011;67481;50.244;18.288;2023-03-01T14:48:45;23.58;;;9.27;;
78207;SDS011;67481;50.244;18.288;2023-03-01T14:51:34;18.98;;;7.78;;
78207;SDS011;67481;50.244;18.288;2023-03-01T14:54:46;22.92;;;8.68;;
78207;SDS011;67481;50.244;18.288;2023-03-01T14:57:30;14.73;;;6.07;;
78207;SDS011;67481;50.244;18.288;2023-03-01T15:00:27;18.05;;;6.80;;
78207;SDS011;67481;50.244;18.288;2023-03-01T15:03:17;19.98;;;8.32;;
78207;SDS011;67481;50.244;18.288;2023-03-01T15:06:25;22.95;;;8.73;;
78207;SDS011;67481;50.244;18.288;2023-03-01T15:09:16;22.48;;;8.30;;
78207;SDS011;67481;50.244;18.288;2023-03-01T15:12:23;21.00;;;7.95;;
78207;SDS011;67481;50.244;18.288;2023-03-01T15:18:25;21.95;;;7.97;;
78207;SDS011;67481;50.244;18.288;2023-03-01T15:21:16;13.80;;;5.35;;
78207;SDS011;67481;50.244;18.288;2023-03-01T15:24:16;13.30;;;3.83;;
78207;SDS011;67481;50.244;18.288;2023-03-01T15:27:12;24.40;;;9.52;;
78207;SDS011;67481;50.244;18.288;2023-03-01T15:30:01;20.27;;;7.75;;
78207;SDS011;67481;50.244;18.288;2023-03-01T15:32:54;18.75;;;7.82;;
78207;SDS011;67481;50.244;18.288;2023-03-01T15:39:42;20.58;;;8.95;;
78207;SDS011;67481;50.244;18.288;2023-03-01T15:42:38;25.50;;;9.50;;
78207;SDS011;67481;50.244;18.288;2023-03-01T15:45:27;21.95;;;9.32;;
78207;SDS011;67481;50.244;18.288;2023-03-01T15:48:15;22.75;;;8.30;;
78207;SDS011;67481;50.244;18.288;2023-03-01T15:51:04;52.67;;;31.02;;
78207;SDS011;67481;50.244;18.288;2023-03-01T15:53:51;35.78;;;17.92;;
78207;SDS011;67481;50.244;18.288;2023-03-01T15:56:39;26.20;;;10.65;;
78207;SDS011;67481;50.244;18.288;2023-03-01T15:59:25;20.83;;;9.57;;
78207;SDS011;67481;50.244;18.288;2023-03-01T16:02:11;30.00;;;14.48;;
78207;SDS011;67481;50.244;18.288;2023-03-01T16:04:58;25.90;;;11.40;;
78207;SDS011;67481;50.244;18.288;2023-03-01T16:07:44;20.15;;;8.55;;
78207;SDS011;67481;50.244;18.288;2023-03-01T16:10:32;24.60;;;8.90;;
78207;SDS011;67481;50.244;18.288;2023-03-01T16:13:18;21.90;;;9.48;;
78207;SDS011;67481;50.244;18.288;2023-03-01T16:16:04;26.73;;;9.43;;
78207;SDS011;67481;50.244;18.288;2023-03-01T16:18:50;21.33;;;8.13;;
78207;SDS011;67481;50.244;18.288;2023-03-01T16:21:39;22.17;;;8.73;;
78207;SDS011;67481;50.244;18.288;2023-03-01T16:24:24;25.42;;;8.93;;
78207;SDS011;67481;50.244;18.288;2023-03-01T16:27:11;23.38;;;8.27;;
78207;SDS011;67481;50.244;18.288;2023-03-01T16:29:56;21.38;;;7.55;;
78207;SDS011;67481;50.244;18.288;2023-03-01T16:32:42;25.88;;;8.02;;
78207;SDS011;67481;50.244;18.288;2023-03-01T16:35:32;19.85;;;7.20;;
78207;SDS011;67481;50.244;18.288;2023-03-01T16:38:17;22.05;;;7.85;;
78207;SDS011;67481;50.244;18.288;2023-03-01T16:41:03;22.50;;;7.95;;
78207;SDS011;67481;50.244;18.288;2023-03-01T16:43:49;19.75;;;6.63;;
78207;SDS011;67481;50.244;18.288;2023-03-01T16:46:34;20.17;;;7.38;;
78207;SDS011;67481;50.244;18.288;2023-03-01T16:49:20;21.23;;;7.90;;
78207;SDS011;67481;50.244;18.288;2023-03-01T16:52:06;16.77;;;6.85;;
78207;SDS011;67481;50.244;18.288;2023-03-01T16:54:52;19.42;;;7.40;;
78207;SDS011;67481;50.244;18.288;2023-03-01T16:57:37;21.08;;;6.70;;
78207;SDS011;67481;50.244;18.288;2023-03-01T17:00:24;18.25;;;6.70;;
78207;SDS011;67481;50.244;18.288;2023-03-01T17:03:16;20.45;;;7.07;;
78207;SDS011;67481;50.244;18.288;2023-03-01T17:06:03;19.33;;;7.00;;
78207;SDS011;67481;50.244;18.288;2023-03-01T17:08:50;19.85;;;7.82;;
78207;SDS011;67481;50.244;18.288;2023-03-01T17:11:35;21.95;;;7.57;;
78207;SDS011;67481;50.244;18.288;2023-03-01T17:14:21;20.33;;;7.03;;
78207;SDS011;67481;50.244;18.288;2023-03-01T17:17:07;24.73;;;9.50;;
78207;SDS011;67481;50.244;18.288;2023-03-01T17:19:56;19.20;;;7.78;;
78207;SDS011;67481;50.244;18.288;2023-03-01T17:22:44;21.73;;;7.85;;
78207;SDS011;67481;50.244;18.288;2023-03-01T17:28:16;17.63;;;6.20;;
78207;SDS011;67481;50.244;18.288;2023-03-01T17:31:10;15.43;;;6.30;;
78207;SDS011;67481;50.244;18.288;2023-03-01T17:33:56;18.13;;;6.65;;
78207;SDS011;67481;50.244;18.288;2023-03-01T17:36:46;22.67;;;7.80;;
78207;SDS011;67481;50.244;18.288;2023-03-01T17:39:34;21.85;;;7.72;;
78207;SDS011;67481;50.244;18.288;2023-03-01T17:42:26;22.58;;;7.35;;
78207;SDS011;67481;50.244;18.288;2023-03-01T17:45:13;19.77;;;7.07;;
78207;SDS011;67481;50.244;18.288;2023-03-01T17:48:00;20.05;;;7.70;;
78207;SDS011;67481;50.244;18.288;2023-03-01T17:50:46;24.65;;;9.70;;
78207;SDS011;67481;50.244;18.288;2023-03-01T17:53:32;25.98;;;9.68;;
78207;SDS011;67481;50.244;18.288;2023-03-01T17:56:21;23.42;;;9.25;;
78207;SDS011;67481;50.244;18.288;2023-03-01T17:59:07;21.25;;;7.40;;
78207;SDS011;67481;50.244;18.288;2023-03-01T18:01:53;28.10;;;10.05;;
78207;SDS011;67481;50.244;18.288;2023-03-01T18:04:45;30.48;;;10.68;;
78207;SDS011;67481;50.244;18.288;2023-03-01T18:07:31;31.77;;;12.02;;
78207;SDS011;67481;50.244;18.288;2023-03-01T18:10:28;32.00;;;11.02;;
78207;SDS011;67481;50.244;18.288;2023-03-01T18:13:13;25.13;;;10.20;;
78207;SDS011;67481;50.244;18.288;2023-03-01T18:16:03;27.02;;;10.35;;
78207;SDS011;67481;50.244;18.288;2023-03-01T18:18:53;28.42;;;10.02;;
78207;SDS011;67481;50.244;18.288;2023-03-01T18:21:39;30.10;;;11.38;;
78207;SDS011;67481;50.244;18.288;2023-03-01T18:24:24;30.63;;;11.38;;
78207;SDS011;67481;50.244;18.288;2023-03-01T18:27:11;32.72;;;10.88;;
78207;SDS011;67481;50.244;18.288;2023-03-01T18:29:57;25.95;;;11.15;;
78207;SDS011;67481;50.244;18.288;2023-03-01T18:32:42;29.15;;;10.35;;
78207;SDS011;67481;50.244;18.288;2023-03-01T18:35:29;29.33;;;10.68;;
78207;SDS011;67481;50.244;18.288;2023-03-01T18:38:15;28.83;;;10.18;;
78207;SDS011;67481;50.244;18.288;2023-03-01T18:47:51;29.77;;;10.48;;